createdAt,value
2022-10-28T00:00:49.764Z,15.36
2022-10-28T00:03:17.339Z,15.37
2022-10-28T00:05:44.171Z,15.35
2022-10-28T00:08:11.737Z,15.36
2022-10-28T00:10:39.957Z,15.36
2022-10-28T00:13:06.992Z,15.36
2022-10-28T00:15:34.658Z,15.35
2022-10-28T00:18:01.601Z,15.30
2022-10-28T00:20:30.632Z,15.26
2022-10-28T00:22:57.440Z,15.24
2022-10-28T00:25:24.172Z,15.24
2022-10-28T00:27:52.948Z,15.19
2022-10-28T00:30:20.242Z,15.19
2022-10-28T00:32:47.169Z,15.19
2022-10-28T00:35:14.314Z,15.15
2022-10-28T00:37:41.096Z,15.16
2022-10-28T00:40:09.832Z,15.12
2022-10-28T00:42:36.673Z,15.10
2022-10-28T00:45:06.440Z,15.09
2022-10-28T00:47:48.535Z,15.02
2022-10-28T00:50:30.059Z,15.01
2022-10-28T00:53:02.154Z,14.95
2022-10-28T00:55:31.732Z,14.95
2022-10-28T00:58:01.901Z,14.97
2022-10-28T01:00:30.347Z,14.97
2022-10-28T01:02:57.240Z,14.97
2022-10-28T01:05:29.558Z,14.81
2022-10-28T01:08:01.055Z,14.81
2022-10-28T01:10:57.601Z,14.79
2022-10-28T01:13:40.372Z,14.84
2022-10-28T01:16:26.025Z,14.81
2022-10-28T01:19:17.404Z,14.82
2022-10-28T01:22:06.473Z,14.82
2022-10-28T01:25:00.724Z,14.79
2022-10-28T01:28:08.961Z,14.76
2022-10-28T01:31:09.151Z,14.76
2022-10-28T01:33:44.495Z,14.77
2022-10-28T01:36:17.525Z,14.78
2022-10-28T01:38:55.955Z,14.75
2022-10-28T01:41:34.552Z,14.73
2022-10-28T01:44:08.741Z,14.72
2022-10-28T01:46:45.362Z,14.72
2022-10-28T01:49:22.548Z,14.72
2022-10-28T01:51:55.340Z,14.75
2022-10-28T01:54:28.351Z,14.72
2022-10-28T01:56:59.089Z,14.62
2022-10-28T01:59:30.534Z,14.57
2022-10-28T02:01:58.918Z,14.58
2022-10-28T02:04:25.950Z,14.61
2022-10-28T02:06:56.974Z,14.56
2022-10-28T02:09:43.522Z,14.48
2022-10-28T02:12:25.240Z,14.44
2022-10-28T02:15:38.196Z,14.48
2022-10-28T02:18:32.030Z,14.47
2022-10-28T02:21:05.834Z,14.52
2022-10-28T02:23:46.419Z,14.51
2022-10-28T02:26:21.827Z,14.56
2022-10-28T02:28:57.116Z,14.60
2022-10-28T02:31:31.515Z,14.63
2022-10-28T02:34:06.861Z,14.67
2022-10-28T02:36:40.197Z,14.71
2022-10-28T02:39:08.370Z,14.71
2022-10-28T02:41:43.484Z,14.72
2022-10-28T02:44:17.879Z,14.73
2022-10-28T02:46:50.960Z,14.73
2022-10-28T02:49:19.858Z,14.68
2022-10-28T02:51:54.532Z,14.68
2022-10-28T02:54:27.901Z,14.67
2022-10-28T02:57:03.184Z,14.72
2022-10-28T02:59:30.202Z,14.74
2022-10-28T03:01:57.419Z,14.79
2022-10-28T03:04:25.684Z,14.67
2022-10-28T03:06:52.460Z,14.64
2022-10-28T03:09:19.345Z,14.66
2022-10-28T03:11:46.092Z,14.70
2022-10-28T03:14:15.290Z,14.64
2022-10-28T03:16:42.537Z,14.63
2022-10-28T03:21:42.508Z,14.65
2022-10-28T03:24:09.314Z,14.69
2022-10-28T03:26:36.294Z,14.71
2022-10-28T03:29:03.127Z,14.71
2022-10-28T03:31:30.494Z,14.73
2022-10-28T03:33:57.728Z,14.71
2022-10-28T03:36:24.757Z,14.75
2022-10-28T03:38:53.296Z,14.77
2022-10-28T03:41:20.432Z,14.77
2022-10-28T03:43:47.976Z,14.80
2022-10-28T03:46:14.739Z,14.81
2022-10-28T03:48:41.502Z,14.76
2022-10-28T03:51:08.328Z,14.77
2022-10-28T03:53:35.213Z,14.74
2022-10-28T03:56:04.618Z,14.75
2022-10-28T03:58:31.546Z,14.76
2022-10-28T04:00:58.494Z,14.78
2022-10-28T04:03:26.347Z,14.72
2022-10-28T04:05:54.166Z,14.64
2022-10-28T04:08:22.064Z,14.64
2022-10-28T04:10:49.208Z,14.65
2022-10-28T04:13:17.895Z,14.66
2022-10-28T04:15:45.105Z,14.71
2022-10-28T04:18:12.034Z,14.76
2022-10-28T04:20:39.166Z,14.78
2022-10-28T04:23:06.170Z,14.81
2022-10-28T04:25:33.167Z,14.84
2022-10-28T04:27:59.994Z,14.86
2022-10-28T04:30:28.056Z,14.89
2022-10-28T04:32:54.776Z,14.93
2022-10-28T04:35:21.802Z,14.96
2022-10-28T04:37:48.708Z,14.94
2022-10-28T04:40:15.982Z,14.89
2022-10-28T04:42:42.789Z,14.86
2022-10-28T04:45:10.816Z,14.87
2022-10-28T04:47:39.015Z,14.88
2022-10-28T04:50:07.214Z,14.90
2022-10-28T04:52:34.017Z,14.88
2022-10-28T04:55:00.847Z,14.90
2022-10-28T04:57:27.641Z,14.89
2022-10-28T04:59:54.742Z,14.88
2022-10-28T05:02:22.891Z,14.86
2022-10-28T05:04:52.487Z,14.86
2022-10-28T05:07:21.377Z,14.86
2022-10-28T05:09:50.495Z,14.85
2022-10-28T05:12:17.268Z,14.87
2022-10-28T05:14:44.055Z,14.82
2022-10-28T05:17:11.593Z,14.81
2022-10-28T05:19:38.690Z,14.79
2022-10-28T05:22:07.078Z,14.79
2022-10-28T05:24:33.988Z,14.78
2022-10-28T05:27:03.340Z,14.76
2022-10-28T05:29:33.296Z,14.69
2022-10-28T05:32:01.528Z,14.61
2022-10-28T05:34:28.944Z,14.44
2022-10-28T05:37:33.499Z,14.31
2022-10-28T05:40:05.029Z,14.39
2022-10-28T05:42:32.604Z,14.41
2022-10-28T05:45:02.133Z,14.45
2022-10-28T05:47:29.177Z,14.46
2022-10-28T05:49:55.910Z,14.47
2022-10-28T05:52:24.181Z,14.47
2022-10-28T05:54:52.468Z,14.40
2022-10-28T05:57:19.295Z,14.41
2022-10-28T05:59:46.304Z,14.43
2022-10-28T06:02:15.075Z,14.46
2022-10-28T06:04:42.276Z,14.48
2022-10-28T06:07:09.577Z,14.50
2022-10-28T06:09:36.495Z,14.48
2022-10-28T06:12:05.072Z,14.43
2022-10-28T06:14:32.426Z,14.30
2022-10-28T06:16:59.262Z,14.25
2022-10-28T06:19:26.171Z,14.28
2022-10-28T06:21:53.000Z,14.32
2022-10-28T06:24:20.192Z,14.36
2022-10-28T06:26:47.013Z,14.38
2022-10-28T06:29:15.434Z,14.38
2022-10-28T06:31:42.585Z,14.35
2022-10-28T06:34:11.752Z,14.38
2022-10-28T06:36:38.882Z,14.42
2022-10-28T06:39:05.944Z,14.40
2022-10-28T06:41:33.180Z,14.49
2022-10-28T06:44:00.784Z,14.61
2022-10-28T06:46:29.442Z,14.69
2022-10-28T06:48:57.969Z,14.74
2022-10-28T06:51:25.217Z,14.76
2022-10-28T06:53:52.768Z,14.82
2022-10-28T06:56:19.784Z,14.91
2022-10-28T06:58:50.501Z,15.05
2022-10-28T07:01:18.097Z,15.35
2022-10-28T07:03:47.057Z,15.75
2022-10-28T07:06:15.383Z,15.86
2022-10-28T07:08:42.657Z,15.93
2022-10-28T07:11:09.404Z,15.96
2022-10-28T07:13:36.223Z,15.90
2022-10-28T07:16:04.038Z,15.97
2022-10-28T07:18:31.084Z,15.97
2022-10-28T07:21:00.792Z,15.97
2022-10-28T07:23:28.384Z,15.98
2022-10-28T07:25:57.101Z,16.01
2022-10-28T07:28:26.457Z,16.06
2022-10-28T07:30:54.218Z,16.23
2022-10-28T07:33:21.227Z,16.38
2022-10-28T07:35:48.245Z,16.16
2022-10-28T07:38:16.811Z,16.09
2022-10-28T07:40:44.101Z,16.22
2022-10-28T07:43:11.641Z,16.39
2022-10-28T07:45:39.521Z,16.53
2022-10-28T07:49:13.923Z,16.79
2022-10-28T07:51:37.539Z,17.62
2022-10-28T07:54:06.194Z,18.10
2022-10-28T07:56:33.065Z,18.10
2022-10-28T07:59:00.730Z,17.96
2022-10-28T08:01:27.808Z,17.85
2022-10-28T08:03:54.803Z,17.75
2022-10-28T08:06:22.120Z,17.73
2022-10-28T08:08:55.206Z,17.71
2022-10-28T08:11:24.305Z,17.69
2022-10-28T08:13:52.882Z,17.70
2022-10-28T08:16:20.273Z,17.69
2022-10-28T08:18:47.325Z,17.71
2022-10-28T08:21:15.701Z,17.69
2022-10-28T08:23:42.646Z,17.49
2022-10-28T08:26:09.485Z,17.11
2022-10-28T08:28:37.770Z,17.00
2022-10-28T08:31:09.705Z,17.00
2022-10-28T08:33:38.343Z,17.10
2022-10-28T08:36:06.569Z,17.27
2022-10-28T08:38:33.810Z,17.35
2022-10-28T08:41:19.275Z,17.34
2022-10-28T08:44:15.795Z,17.28
2022-10-28T08:47:05.609Z,17.31
2022-10-28T08:49:39.139Z,17.37
2022-10-28T08:52:24.066Z,17.44
2022-10-28T08:54:58.701Z,17.51
2022-10-28T08:57:38.088Z,17.58
2022-10-28T09:00:22.631Z,17.65
2022-10-28T09:03:06.860Z,17.70
2022-10-28T09:05:34.372Z,17.60
2022-10-28T09:08:02.803Z,17.44
2022-10-28T09:11:04.047Z,17.21
2022-10-28T09:13:50.887Z,17.41
2022-10-28T09:16:40.694Z,17.08
2022-10-28T09:19:24.353Z,16.73
2022-10-28T09:22:13.762Z,16.68
2022-10-28T09:24:50.142Z,16.58
2022-10-28T09:27:46.631Z,16.77
2022-10-28T09:30:34.877Z,17.15
2022-10-28T09:33:18.098Z,17.75
2022-10-28T09:35:48.169Z,18.69
2022-10-28T09:38:26.924Z,19.58
2022-10-28T09:41:02.669Z,20.50
2022-10-28T09:43:33.166Z,20.81
2022-10-28T09:46:07.815Z,21.15
2022-10-28T09:48:40.911Z,21.61
2022-10-28T09:51:25.803Z,21.79
2022-10-28T09:53:57.739Z,22.06
2022-10-28T09:56:26.444Z,22.68
2022-10-28T09:58:58.069Z,23.23
2022-10-28T10:01:25.466Z,23.31
2022-10-28T10:03:53.707Z,22.36
2022-10-28T10:06:28.985Z,21.63
2022-10-28T10:08:56.854Z,21.12
2022-10-28T10:11:36.353Z,20.88
2022-10-28T10:14:09.813Z,21.00
2022-10-28T10:16:42.424Z,21.38
2022-10-28T10:19:11.909Z,20.99
2022-10-28T10:21:45.581Z,20.74
2022-10-28T10:24:33.785Z,20.60
2022-10-28T10:27:12.495Z,20.47
2022-10-28T10:29:47.181Z,20.43
2022-10-28T10:32:19.566Z,20.43
2022-10-28T10:34:58.460Z,20.41
2022-10-28T10:37:25.347Z,20.57
2022-10-28T10:40:19.090Z,21.03
2022-10-28T10:42:57.456Z,21.90
2022-10-28T10:45:33.188Z,22.00
2022-10-28T10:48:15.189Z,22.16
2022-10-28T10:50:47.744Z,22.10
2022-10-28T10:53:22.641Z,22.10
2022-10-28T10:55:55.370Z,22.13
2022-10-28T10:58:26.430Z,21.38
2022-10-28T11:00:57.773Z,20.75
2022-10-28T11:03:30.481Z,20.69
2022-10-28T11:08:48.294Z,21.04
2022-10-28T11:11:20.982Z,21.25
2022-10-28T11:14:01.552Z,21.64
2022-10-28T11:16:28.314Z,23.46
2022-10-28T11:18:55.106Z,22.72
2022-10-28T11:21:49.207Z,21.88
2022-10-28T11:24:37.334Z,22.10
2022-10-28T11:27:20.633Z,21.85
2022-10-28T11:29:48.963Z,21.93
2022-10-28T11:32:45.301Z,21.72
2022-10-28T11:35:49.986Z,21.34
2022-10-28T11:38:58.786Z,21.33
2022-10-28T11:41:46.656Z,21.30
2022-10-28T11:44:35.073Z,21.42
2022-10-28T11:47:43.972Z,21.68
2022-10-28T11:50:36.632Z,21.83
2022-10-28T11:53:48.554Z,21.99
2022-10-28T11:56:39.411Z,22.03
2022-10-28T12:00:03.094Z,21.64
2022-10-28T12:02:58.742Z,21.71
2022-10-28T12:05:42.030Z,21.94
2022-10-28T12:08:56.050Z,21.86
2022-10-28T12:11:45.613Z,22.24
2022-10-28T12:14:27.692Z,22.46
2022-10-28T12:17:03.680Z,22.77
2022-10-28T12:19:35.920Z,22.63
2022-10-28T12:22:12.618Z,22.67
2022-10-28T12:24:45.716Z,22.69
2022-10-28T12:27:22.321Z,22.28
2022-10-28T12:29:56.776Z,22.02
2022-10-28T12:32:32.092Z,22.15
2022-10-28T12:35:06.223Z,22.27
2022-10-28T12:37:44.687Z,22.36
2022-10-28T12:40:20.532Z,22.67
2022-10-28T12:42:56.813Z,22.97
2022-10-28T12:45:25.066Z,23.12
2022-10-28T12:48:04.270Z,23.46
2022-10-28T12:50:42.276Z,23.81
2022-10-28T12:53:30.987Z,24.06
2022-10-28T12:56:01.710Z,24.09
2022-10-28T12:58:36.190Z,24.17
2022-10-28T13:01:10.125Z,24.21
2022-10-28T13:03:37.450Z,24.31
2022-10-28T13:06:45.755Z,24.38
2022-10-28T13:09:53.335Z,24.40
2022-10-28T13:13:09.228Z,24.43
2022-10-28T13:16:27.841Z,24.51
2022-10-28T13:19:29.129Z,24.58
2022-10-28T13:22:20.408Z,24.66
2022-10-28T13:25:00.304Z,24.43
2022-10-28T13:27:28.195Z,24.24
2022-10-28T13:30:00.081Z,24.09
2022-10-28T13:32:38.398Z,23.86
2022-10-28T13:35:21.653Z,23.58
2022-10-28T13:37:52.740Z,23.48
2022-10-28T13:41:09.459Z,23.60
2022-10-28T13:44:25.689Z,23.73
2022-10-28T13:47:30.456Z,23.78
2022-10-28T13:50:21.672Z,23.70
2022-10-28T13:53:38.208Z,23.76
2022-10-28T13:56:25.395Z,23.72
2022-10-28T13:58:55.757Z,23.75
2022-10-28T14:02:07.837Z,23.77
2022-10-28T14:04:54.646Z,23.67
2022-10-28T14:07:25.001Z,23.80
2022-10-28T14:09:58.093Z,23.76
2022-10-28T14:12:32.324Z,23.53
2022-10-28T14:15:16.620Z,23.46
2022-10-28T14:17:51.642Z,23.56
2022-10-28T14:20:29.999Z,23.45
2022-10-28T14:22:57.794Z,23.48
2022-10-28T14:26:02.014Z,23.47
2022-10-28T14:28:52.595Z,23.46
2022-10-28T14:31:52.721Z,23.45
2022-10-28T14:34:44.051Z,23.34
2022-10-28T14:37:48.573Z,23.21
2022-10-28T14:40:24.561Z,23.13
2022-10-28T14:43:15.849Z,23.12
2022-10-28T14:46:02.298Z,23.05
2022-10-28T14:48:47.576Z,22.85
2022-10-28T14:51:19.492Z,22.84
2022-10-28T14:53:50.566Z,22.79
2022-10-28T14:56:24.680Z,22.75
2022-10-28T14:58:54.946Z,22.70
2022-10-28T15:01:47.369Z,22.58
2022-10-28T15:04:20.624Z,22.55
2022-10-28T15:06:51.782Z,22.51
2022-10-28T15:09:24.802Z,22.50
2022-10-28T15:11:55.641Z,22.48
2022-10-28T15:14:31.926Z,22.44
2022-10-28T15:17:02.764Z,22.41
2022-10-28T15:19:34.626Z,22.42
2022-10-28T15:22:12.896Z,22.39
2022-10-28T15:24:44.604Z,22.60
2022-10-28T15:27:15.135Z,22.59
2022-10-28T15:29:42.899Z,22.57
2022-10-28T15:32:25.465Z,22.60
2022-10-28T15:34:52.893Z,22.58
2022-10-28T15:37:24.019Z,22.54
2022-10-28T15:40:12.353Z,22.48
2022-10-28T15:42:44.514Z,22.39
2022-10-28T15:45:22.818Z,22.36
2022-10-28T15:47:49.874Z,22.33
2022-10-28T15:50:31.550Z,22.22
2022-10-28T15:53:31.700Z,22.22
2022-10-28T15:56:25.091Z,22.23
2022-10-28T15:59:15.163Z,22.23
2022-10-28T16:01:42.253Z,22.26
2022-10-28T16:04:43.354Z,22.21
2022-10-28T16:07:11.068Z,22.15
2022-10-28T16:09:46.730Z,22.09
2022-10-28T16:12:19.977Z,22.04
2022-10-28T16:14:54.136Z,21.96
2022-10-28T16:17:25.173Z,21.88
2022-10-28T16:19:56.471Z,21.82
2022-10-28T16:22:27.154Z,21.76
2022-10-28T16:24:55.458Z,21.64
2022-10-28T16:27:26.550Z,21.64
2022-10-28T16:29:53.893Z,21.56
2022-10-28T16:32:27.737Z,21.37
2022-10-28T16:34:55.919Z,21.23
2022-10-28T16:37:25.166Z,21.08
2022-10-28T16:39:52.706Z,20.99
2022-10-28T16:42:21.776Z,20.90
2022-10-28T16:44:51.207Z,20.79
2022-10-28T16:47:21.821Z,20.63
2022-10-28T16:49:52.489Z,20.37
2022-10-28T16:52:26.609Z,20.23
2022-10-28T16:54:54.426Z,20.11
2022-10-28T16:59:52.383Z,19.96
2022-10-28T17:02:25.355Z,19.91
2022-10-28T17:04:52.209Z,19.88
2022-10-28T17:07:18.993Z,19.83
2022-10-28T17:09:46.057Z,19.73
2022-10-28T17:12:15.474Z,19.66
2022-10-28T17:14:43.122Z,19.59
2022-10-28T17:17:12.151Z,19.48
2022-10-28T17:19:41.214Z,19.45
2022-10-28T17:22:10.560Z,19.36
2022-10-28T17:24:38.289Z,19.29
2022-10-28T17:27:07.125Z,19.35
2022-10-28T17:29:34.186Z,19.42
2022-10-28T17:32:01.124Z,19.49
2022-10-28T17:34:29.242Z,19.52
2022-10-28T17:36:56.328Z,19.41
2022-10-28T17:39:26.117Z,19.29
2022-10-28T17:41:53.854Z,19.17
2022-10-28T17:44:20.766Z,19.08
2022-10-28T17:46:48.227Z,19.03
2022-10-28T17:49:15.783Z,18.97
2022-10-28T17:51:44.500Z,18.77
2022-10-28T17:54:11.553Z,18.70
2022-10-28T17:56:38.462Z,18.60
2022-10-28T17:59:05.575Z,18.50
2022-10-28T18:01:34.600Z,18.38
2022-10-28T18:04:02.522Z,18.32
2022-10-28T18:06:29.264Z,18.26
2022-10-28T18:08:57.330Z,18.26
2022-10-28T18:11:24.336Z,18.14
2022-10-28T18:13:51.282Z,18.01
2022-10-28T18:16:22.270Z,17.99
2022-10-28T18:18:49.084Z,18.00
2022-10-28T18:21:16.087Z,18.00
2022-10-28T18:23:42.878Z,17.97
2022-10-28T18:26:14.017Z,17.97
2022-10-28T18:28:43.632Z,17.94
2022-10-28T18:31:12.981Z,17.93
2022-10-28T18:33:41.340Z,17.88
2022-10-28T18:36:12.982Z,17.86
2022-10-28T18:38:39.984Z,17.83
2022-10-28T18:41:11.759Z,17.82
2022-10-28T18:43:38.767Z,17.78
2022-10-28T18:46:06.389Z,17.75
2022-10-28T18:48:33.321Z,17.71
2022-10-28T18:51:02.940Z,17.68
2022-10-28T18:53:29.697Z,17.67
2022-10-28T18:56:00.495Z,17.66
2022-10-28T18:58:28.992Z,17.65
2022-10-28T19:01:04.869Z,17.59
2022-10-28T19:03:31.944Z,17.51
2022-10-28T19:06:05.252Z,17.52
2022-10-28T19:08:32.696Z,17.49
2022-10-28T19:11:01.583Z,17.49
2022-10-28T19:13:33.207Z,17.46
2022-10-28T19:16:03.697Z,17.44
2022-10-28T19:18:31.111Z,17.43
2022-10-28T19:21:02.447Z,17.37
2022-10-28T19:23:29.250Z,17.38
2022-10-28T19:25:57.000Z,17.36
2022-10-28T19:28:24.086Z,17.34
2022-10-28T19:31:00.315Z,17.31
2022-10-28T19:33:28.618Z,17.29
2022-10-28T19:36:03.818Z,17.24
2022-10-28T19:38:32.924Z,17.27
2022-10-28T19:41:08.476Z,17.23
2022-10-28T19:43:36.531Z,17.02
2022-10-28T19:46:11.668Z,16.95
2022-10-28T19:48:44.414Z,17.00
2022-10-28T19:51:15.902Z,17.00
2022-10-28T19:53:47.781Z,16.82
2022-10-28T19:56:15.420Z,16.82
2022-10-28T19:58:42.240Z,16.85
2022-10-28T20:01:10.778Z,16.85
2022-10-28T20:03:39.346Z,16.87
2022-10-28T20:06:09.318Z,16.89
2022-10-28T20:08:39.005Z,16.87
2022-10-28T20:11:08.961Z,16.86
2022-10-28T20:13:36.757Z,16.84
2022-10-28T20:16:07.585Z,16.79
2022-10-28T20:18:36.323Z,16.65
2022-10-28T20:21:06.073Z,16.58
2022-10-28T20:23:34.145Z,16.54
2022-10-28T20:26:01.871Z,16.49
2022-10-28T20:28:28.772Z,16.43
2022-10-28T20:31:01.326Z,16.43
2022-10-28T20:33:29.628Z,16.39
2022-10-28T20:35:58.311Z,16.37
2022-10-28T20:38:26.008Z,16.32
2022-10-28T20:40:56.022Z,16.32
2022-10-28T20:43:26.313Z,16.33
2022-10-28T20:45:55.631Z,16.33
2022-10-28T20:48:23.190Z,16.29
2022-10-28T20:50:52.701Z,16.20
2022-10-28T20:53:22.000Z,16.10
2022-10-28T20:55:50.654Z,15.96
2022-10-28T20:58:17.762Z,15.95
2022-10-28T21:00:44.752Z,15.97
2022-10-28T21:03:11.711Z,15.94
2022-10-28T21:05:41.306Z,15.96
2022-10-28T21:08:09.400Z,16.01
2022-10-28T21:10:38.731Z,15.99
2022-10-28T21:13:06.940Z,15.98
2022-10-28T21:15:36.746Z,15.99
2022-10-28T21:18:05.047Z,15.97
2022-10-28T21:20:34.265Z,15.87
2022-10-28T21:23:01.617Z,15.86
2022-10-28T21:25:28.753Z,15.72
2022-10-28T21:27:58.324Z,15.43
2022-10-28T21:30:25.900Z,15.46
2022-10-28T21:32:53.692Z,15.51
2022-10-28T21:35:20.875Z,15.56
2022-10-28T21:37:48.192Z,15.61
2022-10-28T21:40:15.508Z,15.62
2022-10-28T21:42:47.670Z,15.61
2022-10-28T21:45:16.687Z,15.64
2022-10-28T21:47:43.650Z,15.58
2022-10-28T21:50:10.639Z,15.52
2022-10-28T21:52:37.537Z,15.45
2022-10-28T21:55:14.651Z,15.38
2022-10-28T21:57:47.918Z,15.43
2022-10-28T22:00:16.416Z,15.48
2022-10-28T22:02:43.305Z,15.47
2022-10-28T22:05:10.189Z,15.47
2022-10-28T22:07:37.228Z,15.49
2022-10-28T22:10:06.537Z,15.52
2022-10-28T22:12:33.368Z,15.51
2022-10-28T22:15:00.734Z,15.50
2022-10-28T22:17:28.924Z,15.53
2022-10-28T22:19:55.771Z,15.52
2022-10-28T22:22:22.753Z,15.36
2022-10-28T22:24:49.627Z,15.27
2022-10-28T22:27:16.764Z,15.30
2022-10-28T22:29:43.496Z,15.20
2022-10-28T22:32:10.577Z,15.17
2022-10-28T22:34:38.933Z,15.11
2022-10-28T22:37:05.830Z,14.85
2022-10-28T22:39:32.763Z,14.83
2022-10-28T22:41:59.979Z,14.89
2022-10-28T22:44:26.811Z,14.96
2022-10-28T22:46:54.124Z,14.96
2022-10-28T22:49:21.038Z,14.93
2022-10-28T22:51:49.742Z,14.95
2022-10-28T22:54:16.763Z,14.96
2022-10-28T22:56:43.810Z,14.95
2022-10-28T22:59:11.141Z,14.93
2022-10-28T23:01:39.238Z,14.84
2022-10-28T23:04:10.937Z,14.83
2022-10-28T23:06:38.213Z,14.79
2022-10-28T23:09:06.525Z,14.80
2022-10-28T23:11:33.447Z,14.82
2022-10-28T23:14:00.307Z,14.83
2022-10-28T23:16:27.232Z,14.79
2022-10-28T23:18:54.393Z,14.81
2022-10-28T23:21:23.684Z,14.83
2022-10-28T23:23:54.134Z,14.86
2022-10-28T23:26:24.500Z,14.85
2022-10-28T23:28:53.463Z,14.85
2022-10-28T23:31:21.964Z,14.86
2022-10-28T23:33:49.849Z,14.86
2022-10-28T23:36:17.203Z,14.84
2022-10-28T23:38:44.193Z,14.78
2022-10-28T23:41:14.293Z,14.72
2022-10-28T23:43:42.821Z,14.49
2022-10-28T23:46:10.517Z,14.35
2022-10-28T23:48:37.586Z,14.24
2022-10-28T23:51:04.868Z,14.26
2022-10-28T23:53:31.750Z,14.30
2022-10-28T23:55:58.983Z,14.37
2022-10-28T23:58:26.128Z,14.43
